Time;durP1;ratioP1;P1;durP2;ratioP2;P2;SDS_P1;SDS_P2;PMS_P1;PMS_P2;Temp;Humidity;BMP_temperature;BMP_pressure;BME280_temperature;BME280_humidity;BME280_pressure;Samples;Min_cycle;Max_cycle;Signal;HPM_P1;HPM_P2
2021/06/09 00:00:25;;;;;;;4.88;3.50;;;19.40;68.20;;;;;;2076410;28;20499;-85
2021/06/09 00:01:28;;;;;;;4.32;3.35;;;19.30;68.20;;;;;;2061667;28;20527;-85
2021/06/09 00:02:28;;;;;;;5.00;3.33;;;19.40;68.20;;;;;;2063562;28;20026;-85
2021/06/09 00:03:29;;;;;;;4.70;3.30;;;19.30;68.20;;;;;;2077416;28;20052;-85
2021/06/09 00:04:30;;;;;;;5.00;3.00;;;19.30;68.20;;;;;;2077224;28;20040;-84
2021/06/09 00:05:31;;;;;;;4.55;3.38;;;19.30;68.30;;;;;;2078087;28;20030;-84
2021/06/09 00:06:32;;;;;;;4.60;3.47;;;19.30;68.20;;;;;;2076137;28;20029;-84
2021/06/09 00:07:32;;;;;;;4.70;3.50;;;19.30;68.20;;;;;;2063882;28;20129;-84
2021/06/09 00:08:33;;;;;;;5.95;3.40;;;19.40;68.30;;;;;;2072283;28;20033;-87
2021/06/09 00:09:34;;;;;;;4.95;3.45;;;19.40;68.30;;;;;;2072299;28;20030;-87
2021/06/09 00:10:35;;;;;;;4.63;3.55;;;19.30;68.20;;;;;;2056134;28;20035;-87
2021/06/09 00:11:35;;;;;;;4.75;3.30;;;19.30;68.30;;;;;;2050056;28;20039;-87
2021/06/09 00:12:36;;;;;;;4.07;3.03;;;19.30;68.30;;;;;;2056442;28;20109;-87
2021/06/09 00:13:38;;;;;;;5.43;3.95;;;19.30;68.30;;;;;;2070207;28;20125;-84
2021/06/09 00:14:38;;;;;;;5.72;3.63;;;19.40;68.40;;;;;;2064305;28;20030;-84
2021/06/09 00:15:39;;;;;;;4.80;3.40;;;19.30;68.30;;;;;;2070077;28;20407;-85
2021/06/09 00:16:40;;;;;;;5.30;3.42;;;19.30;68.30;;;;;;2064489;28;20035;-87
2021/06/09 00:17:42;;;;;;;4.47;3.42;;;19.30;68.30;;;;;;2070330;28;20026;-87
2021/06/09 00:18:43;;;;;;;4.93;3.38;;;19.30;68.40;;;;;;2075775;28;20033;-86
2021/06/09 00:19:43;;;;;;;4.50;3.40;;;19.30;68.40;;;;;;2069489;28;20442;-87
2021/06/09 00:20:44;;;;;;;4.75;3.60;;;19.30;68.40;;;;;;2064137;28;20032;-86
2021/06/09 00:21:48;;;;;;;5.45;3.70;;;19.30;68.50;;;;;;2062888;28;20493;-87
2021/06/09 00:22:49;;;;;;;5.50;3.63;;;19.20;68.50;;;;;;2070480;28;20029;-87
2021/06/09 00:23:50;;;;;;;5.05;3.63;;;19.20;68.50;;;;;;2068115;28;20061;-87
2021/06/09 00:24:51;;;;;;;4.82;3.85;;;19.20;68.50;;;;;;2068195;28;20033;-86
2021/06/09 00:25:53;;;;;;;4.95;3.92;;;19.20;68.40;;;;;;2065347;28;20508;-87
2021/06/09 00:26:54;;;;;;;5.43;3.83;;;19.30;68.60;;;;;;2070891;28;20026;-87
2021/06/09 00:27:56;;;;;;;4.90;4.00;;;19.30;68.60;;;;;;2070516;28;20117;-87
2021/06/09 00:28:57;;;;;;;4.45;3.50;;;19.30;68.70;;;;;;2052315;28;20405;-87
2021/06/09 00:29:58;;;;;;;4.60;3.47;;;19.20;68.60;;;;;;2055754;28;20041;-87
2021/06/09 00:31:03;;;;;;;4.97;3.75;;;19.30;68.60;;;;;;2057719;28;20576;-87
2021/06/09 00:32:05;;;;;;;4.57;3.75;;;19.30;68.70;;;;;;2059215;28;20490;-87
2021/06/09 00:33:06;;;;;;;4.38;3.55;;;19.20;68.60;;;;;;2068348;28;20093;-86
2021/06/09 00:34:07;;;;;;;5.78;3.60;;;19.30;68.70;;;;;;2073790;28;20085;-87
2021/06/09 00:35:08;;;;;;;4.97;3.70;;;19.30;68.70;;;;;;2064812;28;20035;-88
2021/06/09 00:36:09;;;;;;;4.28;3.33;;;19.30;68.80;;;;;;2066414;28;21911;-88
2021/06/09 00:37:10;;;;;;;4.35;3.47;;;19.30;68.90;;;;;;2073394;28;20025;-87
2021/06/09 00:38:10;;;;;;;4.18;3.17;;;19.20;68.90;;;;;;2064809;28;20038;-87
2021/06/09 00:39:11;;;;;;;5.22;3.60;;;19.30;69.00;;;;;;2064908;28;20034;-87
2021/06/09 00:40:12;;;;;;;4.45;3.40;;;19.30;69.10;;;;;;2073682;28;20022;-88
2021/06/09 00:41:13;;;;;;;4.22;3.40;;;19.20;69.10;;;;;;2077457;28;20133;-88
2021/06/09 00:42:21;;;;;;;4.60;3.47;;;19.20;69.20;;;;;;2075131;28;20022;-87
2021/06/09 00:43:26;;;;;;;4.75;3.78;;;19.20;69.20;;;;;;2079207;28;20026;-86
2021/06/09 00:44:27;;;;;;;4.18;3.45;;;19.20;69.30;;;;;;2070614;28;20030;-87
2021/06/09 00:45:28;;;;;;;4.68;3.53;;;19.20;69.40;;;;;;2072977;28;20029;-87
2021/06/09 00:46:37;;;;;;;4.63;3.30;;;19.20;69.50;;;;;;2065452;28;20061;-87
2021/06/09 00:47:38;;;;;;;4.72;3.50;;;19.20;69.50;;;;;;2068773;28;20507;-88
2021/06/09 00:48:41;;;;;;;5.10;3.80;;;19.10;69.50;;;;;;2074171;28;20030;-88
2021/06/09 00:49:42;;;;;;;5.78;3.58;;;19.10;69.50;;;;;;2081432;28;20617;-87
2021/06/09 00:50:42;;;;;;;4.43;3.67;;;19.10;69.50;;;;;;2078565;28;20030;-87
2021/06/09 00:51:43;;;;;;;4.68;3.55;;;19.10;69.50;;;;;;2075876;28;20139;-87
2021/06/09 00:52:43;;;;;;;4.95;3.55;;;19.10;69.50;;;;;;2073102;28;20038;-87
2021/06/09 00:53:52;;;;;;;5.20;3.67;;;19.10;69.60;;;;;;2064479;28;20026;-87
2021/06/09 00:54:54;;;;;;;4.70;3.60;;;19.10;69.70;;;;;;2081288;28;20037;-87
2021/06/09 00:56:03;;;;;;;5.20;3.92;;;19.00;69.80;;;;;;2073490;28;20026;-87
2021/06/09 00:57:05;;;;;;;4.57;3.72;;;19.00;69.80;;;;;;2074321;28;20089;-87
2021/06/09 00:58:06;;;;;;;5.63;3.92;;;19.00;69.90;;;;;;2072794;28;20056;-87
2021/06/09 00:59:07;;;;;;;5.15;3.70;;;19.00;70.00;;;;;;2062310;28;20031;-88
2021/06/09 01:00:10;;;;;;;3.95;3.33;;;19.00;70.00;;;;;;2071686;28;20161;-87
2021/06/09 01:01:13;;;;;;;5.10;3.65;;;18.90;70.00;;;;;;2066958;28;20472;-86
2021/06/09 01:02:14;;;;;;;4.65;3.58;;;18.90;70.10;;;;;;2063192;28;20588;-87
2021/06/09 01:03:15;;;;;;;5.60;3.95;;;18.90;70.10;;;;;;2073475;28;20072;-87
2021/06/09 01:04:15;;;;;;;5.57;4.05;;;18.90;70.10;;;;;;2065989;28;20459;-87
2021/06/09 01:05:16;;;;;;;5.22;4.20;;;18.90;70.20;;;;;;2072974;28;20464;-87
2021/06/09 01:06:17;;;;;;;5.93;4.55;;;18.90;70.30;;;;;;2057480;28;20101;-86
2021/06/09 01:07:18;;;;;;;4.88;3.78;;;18.90;70.30;;;;;;2069195;28;20476;-87
2021/06/09 01:08:19;;;;;;;5.20;3.90;;;18.80;70.30;;;;;;2073320;28;20021;-87
2021/06/09 01:09:20;;;;;;;5.80;3.92;;;18.80;70.40;;;;;;2065245;28;20026;-87
2021/06/09 01:10:21;;;;;;;4.75;3.58;;;18.80;70.40;;;;;;2064672;28;20088;-86
2021/06/09 01:11:26;;;;;;;4.60;3.70;;;18.80;70.50;;;;;;2065389;28;20099;-86
2021/06/09 01:12:27;;;;;;;4.38;3.58;;;18.80;70.50;;;;;;2065801;28;20045;-87
2021/06/09 01:13:29;;;;;;;5.00;3.88;;;18.80;70.50;;;;;;2073206;28;20041;-87
2021/06/09 01:14:30;;;;;;;5.22;3.92;;;18.80;70.50;;;;;;2074010;28;20088;-87
2021/06/09 01:15:31;;;;;;;5.88;4.10;;;18.80;71.20;;;;;;2072674;28;20491;-87
2021/06/09 01:16:32;;;;;;;5.53;3.72;;;18.80;70.60;;;;;;2073701;28;20022;-87
2021/06/09 01:17:32;;;;;;;5.35;3.95;;;18.80;70.60;;;;;;2069090;28;20080;-87
2021/06/09 01:18:34;;;;;;;5.25;4.10;;;18.70;70.60;;;;;;2065822;28;20489;-87
2021/06/09 01:19:35;;;;;;;4.72;3.83;;;18.80;70.70;;;;;;2065568;28;20057;-87
2021/06/09 01:20:36;;;;;;;4.90;3.90;;;18.70;70.70;;;;;;2074808;28;20503;-87
2021/06/09 01:21:37;;;;;;;5.55;4.10;;;18.70;70.80;;;;;;2073859;28;20094;-87
2021/06/09 01:22:37;;;;;;;5.43;3.88;;;18.70;70.80;;;;;;2068844;28;20145;-87
2021/06/09 01:23:39;;;;;;;5.38;3.90;;;18.70;70.80;;;;;;2064522;28;20070;-87
2021/06/09 01:24:40;;;;;;;5.53;3.97;;;18.70;70.90;;;;;;2071352;28;20022;-86
2021/06/09 01:25:41;;;;;;;5.80;3.85;;;18.70;70.90;;;;;;2073200;28;20030;-87
2021/06/09 01:26:43;;;;;;;5.00;3.92;;;18.70;70.90;;;;;;2077610;28;20026;-87
2021/06/09 01:27:44;;;;;;;4.45;3.60;;;18.70;71.00;;;;;;2073694;28;20030;-87
2021/06/09 01:28:46;;;;;;;5.20;4.05;;;18.70;71.00;;;;;;2073479;28;20592;-87
2021/06/09 01:29:47;;;;;;;4.60;3.63;;;18.70;71.10;;;;;;2072681;28;20042;-87
2021/06/09 01:30:48;;;;;;;6.00;3.90;;;18.70;71.10;;;;;;2072118;28;20049;-86
2021/06/09 01:31:48;;;;;;;5.53;3.67;;;18.70;71.10;;;;;;2056882;28;20027;-87
2021/06/09 01:32:51;;;;;;;5.35;3.88;;;18.70;71.10;;;;;;2063763;28;20181;-87
2021/06/09 01:33:52;;;;;;;5.50;3.90;;;18.70;71.10;;;;;;2071243;28;20117;-87
2021/06/09 01:34:53;;;;;;;5.55;3.85;;;18.70;71.20;;;;;;2077414;28;20546;-87
2021/06/09 01:35:54;;;;;;;5.55;4.30;;;18.70;71.20;;;;;;2072309;28;20053;-87
2021/06/09 01:36:55;;;;;;;5.38;4.07;;;18.70;71.20;;;;;;2073109;28;20032;-86
2021/06/09 01:37:56;;;;;;;5.82;4.28;;;18.70;71.20;;;;;;2070435;28;20026;-86
2021/06/09 01:38:56;;;;;;;5.80;4.13;;;18.70;71.30;;;;;;2070218;28;20068;-86
2021/06/09 01:39:59;;;;;;;5.28;3.80;;;18.70;71.30;;;;;;2071391;28;20060;-86
2021/06/09 01:41:01;;;;;;;4.82;3.90;;;18.70;71.30;;;;;;2077625;28;20474;-85
2021/06/09 01:42:02;;;;;;;6.18;4.30;;;18.70;71.40;;;;;;2078693;28;20476;-85
2021/06/09 01:43:03;;;;;;;5.60;4.25;;;18.60;71.40;;;;;;2072422;28;20030;-85
2021/06/09 01:44:04;;;;;;;5.30;4.07;;;18.60;71.40;;;;;;2071133;28;20061;-86
2021/06/09 01:45:08;;;;;;;5.32;4.30;;;18.60;71.40;;;;;;2076821;28;20022;-86
2021/06/09 01:46:08;;;;;;;4.90;3.85;;;18.60;71.50;;;;;;2068063;28;20033;-86
2021/06/09 01:47:09;;;;;;;5.30;4.40;;;18.60;71.50;;;;;;2076509;28;20193;-85
2021/06/09 01:48:10;;;;;;;6.47;4.32;;;18.60;71.60;;;;;;2073010;28;20030;-85
2021/06/09 01:49:15;;;;;;;5.10;3.95;;;18.60;71.60;;;;;;2076310;28;20392;-85
2021/06/09 01:50:16;;;;;;;5.72;4.35;;;18.60;71.70;;;;;;2076465;28;20033;-85
2021/06/09 01:51:18;;;;;;;5.70;4.10;;;18.60;72.40;;;;;;2063568;28;20046;-85
2021/06/09 01:52:19;;;;;;;5.97;4.40;;;18.60;71.80;;;;;;2063797;28;20030;-86
2021/06/09 01:53:20;;;;;;;5.63;4.25;;;18.60;71.90;;;;;;2077432;28;20030;-86
2021/06/09 01:54:22;;;;;;;6.30;4.45;;;18.60;72.00;;;;;;2076876;28;20591;-86
2021/06/09 01:55:25;;;;;;;6.40;4.20;;;18.60;72.10;;;;;;2077228;28;20045;-85
2021/06/09 01:56:26;;;;;;;5.55;4.38;;;18.60;72.10;;;;;;2076391;28;20049;-85
2021/06/09 01:57:27;;;;;;;7.18;4.45;;;18.60;72.30;;;;;;2072075;28;20033;-85
2021/06/09 01:58:28;;;;;;;6.72;4.90;;;18.50;72.30;;;;;;2064345;28;20023;-85
2021/06/09 01:59:32;;;;;;;6.38;4.13;;;18.50;72.30;;;;;;2064944;28;20042;-86
2021/06/09 02:00:42;;;;;;;6.10;4.63;;;18.50;72.40;;;;;;2072194;28;20029;-86
2021/06/09 02:01:44;;;;;;;6.53;4.93;;;18.50;72.50;;;;;;2068289;28;20022;-86
2021/06/09 02:02:45;;;;;;;5.63;4.50;;;18.50;72.50;;;;;;2075462;28;20027;-86
2021/06/09 02:03:46;;;;;;;6.22;4.82;;;18.50;72.50;;;;;;2065148;28;20041;-86
2021/06/09 02:04:47;;;;;;;6.28;4.68;;;18.50;72.50;;;;;;2064916;28;20113;-86
2021/06/09 02:05:47;;;;;;;6.88;4.78;;;18.50;72.60;;;;;;2073256;28;20022;-86
2021/06/09 02:06:48;;;;;;;6.57;4.32;;;18.50;73.20;;;;;;2066116;28;20465;-86
2021/06/09 02:07:49;;;;;;;6.63;5.07;;;18.50;72.70;;;;;;2063691;28;20040;-87
2021/06/09 02:08:49;;;;;;;6.05;4.43;;;18.50;72.70;;;;;;2059129;28;20109;-87
2021/06/09 02:09:50;;;;;;;5.60;4.47;;;18.50;72.80;;;;;;2064862;28;20050;-86
2021/06/09 02:10:51;;;;;;;5.80;4.70;;;18.50;72.80;;;;;;2072139;28;20056;-85
2021/06/09 02:11:52;;;;;;;5.30;4.40;;;18.50;72.90;;;;;;2069819;28;20066;-86
2021/06/09 02:12:56;;;;;;;5.72;4.57;;;18.40;73.50;;;;;;2075603;28;20404;-85
2021/06/09 02:13:58;;;;;;;5.32;4.22;;;18.40;73.00;;;;;;2086057;28;20391;-86
2021/06/09 02:14:59;;;;;;;6.15;4.93;;;18.40;73.00;;;;;;2071474;28;20515;-86
2021/06/09 02:16:01;;;;;;;5.75;4.72;;;18.40;73.10;;;;;;2068922;28;20126;-86
2021/06/09 02:17:04;;;;;;;6.75;5.07;;;18.40;73.10;;;;;;2054269;28;20540;-86
2021/06/09 02:18:13;;;;;;;6.88;5.10;;;18.40;73.20;;;;;;2073539;28;20045;-86
2021/06/09 02:19:14;;;;;;;7.22;4.80;;;18.40;73.30;;;;;;2068975;28;20045;-86
2021/06/09 02:20:15;;;;;;;6.95;4.65;;;18.40;73.30;;;;;;2065931;28;20504;-86
2021/06/09 02:21:15;;;;;;;6.15;4.82;;;18.40;73.40;;;;;;2073102;28;20034;-86
2021/06/09 02:22:16;;;;;;;6.40;5.20;;;18.30;73.40;;;;;;2066552;28;20034;-85
2021/06/09 02:23:22;;;;;;;6.28;4.95;;;18.40;74.10;;;;;;2072812;28;20022;-86
2021/06/09 02:24:26;;;;;;;7.68;4.95;;;18.40;73.50;;;;;;2069350;28;20508;-86
2021/06/09 02:25:27;;;;;;;6.68;5.18;;;18.30;73.50;;;;;;2076705;28;20024;-87
2021/06/09 02:26:28;;;;;;;6.75;5.07;;;18.30;74.20;;;;;;2070403;28;20116;-87
2021/06/09 02:27:29;;;;;;;6.47;4.93;;;18.30;73.60;;;;;;2062835;28;20031;-86
2021/06/09 02:28:32;;;;;;;6.78;5.22;;;18.40;73.70;;;;;;2071598;28;20057;-86
2021/06/09 02:29:33;;;;;;;6.50;5.25;;;18.30;73.60;;;;;;2084644;28;20525;-87
2021/06/09 02:30:34;;;;;;;7.38;5.50;;;18.30;73.70;;;;;;2071051;28;20050;-86
2021/06/09 02:31:45;;;;;;;6.30;5.13;;;18.40;73.80;;;;;;2064332;28;20035;-86
2021/06/09 02:32:46;;;;;;;6.80;5.43;;;18.30;73.70;;;;;;2073330;28;20040;-86
2021/06/09 02:33:47;;;;;;;7.10;5.53;;;18.40;73.80;;;;;;2081701;28;20104;-86
2021/06/09 02:34:48;;;;;;;6.85;5.15;;;18.30;73.80;;;;;;2073608;28;20025;-87
2021/06/09 02:35:51;;;;;;;8.35;5.70;;;18.30;73.90;;;;;;2072866;28;20478;-87
2021/06/09 02:36:55;;;;;;;8.27;5.80;;;18.30;73.90;;;;;;2067756;28;20035;-82
2021/06/09 02:37:56;;;;;;;6.68;5.32;;;18.30;74.00;;;;;;2081363;28;20030;-84
2021/06/09 02:38:57;;;;;;;6.68;5.57;;;18.30;74.00;;;;;;2073437;28;20018;-87
2021/06/09 02:39:58;;;;;;;6.57;5.47;;;18.20;74.10;;;;;;2071030;28;20018;-85
2021/06/09 02:40:59;;;;;;;6.72;5.57;;;18.30;74.10;;;;;;2082506;28;20018;-86
2021/06/09 02:41:59;;;;;;;7.30;5.50;;;18.30;74.20;;;;;;2083435;28;20010;-86
2021/06/09 02:43:01;;;;;;;7.25;5.70;;;18.20;74.10;;;;;;2066850;28;20030;-87
2021/06/09 02:44:02;;;;;;;6.70;5.47;;;18.20;74.20;;;;;;2066210;28;20420;-87
2021/06/09 02:45:09;;;;;;;6.95;5.70;;;18.20;74.30;;;;;;2075212;28;20026;-87
2021/06/09 02:46:25;;;;;;;8.27;5.63;;;18.20;74.30;;;;;;2082242;28;20602;-86
2021/06/09 02:47:26;;;;;;;7.25;5.68;;;18.20;74.30;;;;;;2090823;28;20085;-83
2021/06/09 02:48:30;;;;;;;6.60;5.28;;;18.20;74.30;;;;;;2080955;28;20011;-86
2021/06/09 02:49:35;;;;;;;6.82;5.80;;;18.20;74.40;;;;;;2072683;28;20046;-85
2021/06/09 02:50:37;;;;;;;6.90;5.45;;;18.20;74.40;;;;;;2083600;28;20030;-86
2021/06/09 02:51:46;;;;;;;6.50;5.45;;;18.20;74.40;;;;;;2079290;28;20021;-86
2021/06/09 02:52:50;;;;;;;6.35;5.22;;;18.20;74.50;;;;;;2072073;28;20123;-85
2021/06/09 02:54:01;;;;;;;6.75;5.50;;;18.20;74.50;;;;;;2072355;28;20173;-86
2021/06/09 02:55:29;;;;;;;6.20;5.32;;;18.20;74.50;;;;;;2081351;28;20026;-86
2021/06/09 02:57:01;;;;;;;5.72;4.90;;;18.20;74.50;;;;;;2075731;28;20026;-86
2021/06/09 02:58:21;;;;;;;6.38;5.03;;;18.20;74.60;;;;;;2073949;28;20025;-86
2021/06/09 03:00:07;;;;;;;5.82;5.03;;;18.10;74.60;;;;;;2071018;28;20034;-86
2021/06/09 03:01:29;;;;;;;6.03;4.90;;;18.10;74.60;;;;;;2071537;28;20053;-86
2021/06/09 03:03:07;;;;;;;6.22;4.90;;;18.10;74.60;;;;;;2074725;28;20022;-87
2021/06/09 03:04:43;;;;;;;6.80;5.15;;;18.10;74.60;;;;;;2078159;28;20479;-86
2021/06/09 03:06:03;;;;;;;6.30;4.88;;;18.00;74.60;;;;;;2076115;28;20037;-86
2021/06/09 03:07:27;;;;;;;7.07;5.28;;;18.00;74.70;;;;;;2079372;28;20018;-84
2021/06/09 03:08:57;;;;;;;7.43;5.60;;;18.00;74.80;;;;;;2084852;28;20014;-85
2021/06/09 03:10:40;;;;;;;7.28;4.88;;;17.90;74.80;;;;;;2052210;28;20039;-86
2021/06/09 03:12:00;;;;;;;6.95;5.55;;;17.90;74.80;;;;;;2068633;28;20045;-86
2021/06/09 03:13:34;;;;;;;7.88;5.20;;;17.90;74.90;;;;;;2055760;28;20062;-86
2021/06/09 03:16:15;;;;;;;6.68;5.40;;;17.80;75.00;;;;;;2079534;28;20029;-86
2021/06/09 03:17:22;;;;;;;7.75;5.63;;;17.90;75.20;;;;;;2079944;28;20017;-87
2021/06/09 03:18:29;;;;;;;7.07;5.50;;;17.90;75.20;;;;;;2081870;28;20029;-87
2021/06/09 03:20:04;;;;;;;7.00;5.55;;;17.90;75.40;;;;;;2078144;28;20383;-87
2021/06/09 03:21:16;;;;;;;7.55;5.47;;;17.80;75.30;;;;;;2070446;28;20059;-86
2021/06/09 03:22:46;;;;;;;7.22;5.75;;;17.80;75.30;;;;;;2080156;28;20091;-87
2021/06/09 03:23:50;;;;;;;7.00;5.68;;;17.80;75.40;;;;;;2079126;28;20052;-87
2021/06/09 03:24:55;;;;;;;7.63;5.78;;;17.80;75.40;;;;;;2076999;28;20045;-86
2021/06/09 03:26:07;;;;;;;7.10;5.85;;;17.80;75.40;;;;;;2079572;28;20114;-86
2021/06/09 03:27:16;;;;;;;7.57;6.10;;;17.80;75.40;;;;;;2079824;28;20066;-86
2021/06/09 03:28:32;;;;;;;7.28;5.97;;;17.80;75.50;;;;;;2082932;28;20017;-86
2021/06/09 03:30:07;;;;;;;7.65;5.90;;;17.80;75.60;;;;;;2079564;28;20025;-86
2021/06/09 03:31:15;;;;;;;6.90;5.57;;;17.80;75.50;;;;;;2081237;28;20032;-85
2021/06/09 03:32:21;;;;;;;7.55;6.38;;;17.80;75.60;;;;;;2074267;28;20018;-86
2021/06/09 03:33:25;;;;;;;7.93;6.00;;;17.80;75.60;;;;;;2068449;28;20475;-85
2021/06/09 03:34:34;;;;;;;7.70;6.13;;;17.80;75.70;;;;;;2072127;28;20021;-85
2021/06/09 03:35:40;;;;;;;7.32;6.00;;;17.80;75.70;;;;;;2077397;28;20055;-85
2021/06/09 03:36:42;;;;;;;7.80;6.15;;;17.80;75.70;;;;;;2074536;28;20037;-85
2021/06/09 03:37:48;;;;;;;7.35;6.05;;;17.80;75.80;;;;;;2081664;28;20025;-85
2021/06/09 03:39:11;;;;;;;6.95;5.90;;;17.80;75.80;;;;;;2081239;28;20076;-85
2021/06/09 03:40:15;;;;;;;7.18;5.88;;;17.80;75.80;;;;;;2076748;28;20055;-85
2021/06/09 03:41:19;;;;;;;8.63;6.72;;;17.80;75.80;;;;;;2075634;28;20022;-85
2021/06/09 03:42:21;;;;;;;7.90;6.47;;;17.80;75.80;;;;;;2076709;28;20054;-85
2021/06/09 03:43:22;;;;;;;8.48;6.30;;;17.80;75.90;;;;;;2069773;28;20045;-85
2021/06/09 03:44:45;;;;;;;8.63;6.18;;;17.80;75.90;;;;;;2060004;28;20055;-85
2021/06/09 03:45:50;;;;;;;7.55;5.93;;;17.80;75.90;;;;;;2074363;28;20013;-85
2021/06/09 03:46:52;;;;;;;7.95;6.18;;;17.80;75.90;;;;;;2077356;28;20641;-85
2021/06/09 03:47:55;;;;;;;8.25;6.32;;;17.80;76.00;;;;;;2071336;28;20042;-85
2021/06/09 03:48:58;;;;;;;8.55;6.47;;;17.80;76.10;;;;;;2064683;28;20022;-86
2021/06/09 03:50:00;;;;;;;8.73;7.13;;;17.80;76.10;;;;;;2064533;28;20182;-86
2021/06/09 03:51:01;;;;;;;7.38;6.22;;;17.80;76.10;;;;;;2055211;28;20042;-85
2021/06/09 03:52:02;;;;;;;7.65;6.45;;;17.80;76.20;;;;;;2071581;28;20097;-85
2021/06/09 03:53:05;;;;;;;7.63;6.53;;;17.80;76.20;;;;;;2068973;28;20393;-85
2021/06/09 03:54:07;;;;;;;7.90;6.82;;;17.90;76.30;;;;;;2068979;28;20420;-86
2021/06/09 03:55:10;;;;;;;8.27;6.95;;;17.80;76.20;;;;;;2068208;28;20061;-86
2021/06/09 03:56:12;;;;;;;7.97;6.63;;;17.80;76.20;;;;;;2070935;28;20034;-86
2021/06/09 03:57:14;;;;;;;7.95;6.95;;;17.80;76.30;;;;;;2072310;28;20022;-86
2021/06/09 03:58:18;;;;;;;7.88;6.75;;;17.80;76.30;;;;;;2070172;28;20443;-86
2021/06/09 03:59:21;;;;;;;8.00;6.70;;;17.90;76.40;;;;;;2070994;28;20129;-86
2021/06/09 04:00:23;;;;;;;8.25;6.75;;;17.90;76.30;;;;;;2068964;28;20018;-87
2021/06/09 04:01:32;;;;;;;8.50;7.28;;;17.90;76.30;;;;;;2068983;28;20401;-85
2021/06/09 04:02:36;;;;;;;9.73;7.25;;;17.90;76.30;;;;;;2078797;28;20026;-87
2021/06/09 04:03:38;;;;;;;8.60;6.85;;;17.90;76.30;;;;;;2074987;28;20018;-86
2021/06/09 04:04:40;;;;;;;7.70;6.38;;;17.90;76.30;;;;;;2072890;28;20101;-87
2021/06/09 04:05:42;;;;;;;7.90;6.85;;;17.90;76.30;;;;;;2072330;28;20512;-87
2021/06/09 04:06:44;;;;;;;8.07;6.80;;;17.90;76.30;;;;;;2063425;28;20026;-87
2021/06/09 04:07:46;;;;;;;10.93;7.10;;;17.90;76.30;;;;;;2072160;28;20393;-87
2021/06/09 04:08:48;;;;;;;7.88;6.50;;;18.00;77.00;;;;;;2085948;28;20100;-87
2021/06/09 04:09:50;;;;;;;7.97;6.90;;;18.00;76.30;;;;;;2067404;28;20027;-87
2021/06/09 04:10:53;;;;;;;8.40;6.78;;;18.00;76.50;;;;;;2070078;28;20050;-87
2021/06/09 04:12:00;;;;;;;8.75;6.97;;;18.00;76.20;;;;;;2073090;28;20064;-87
2021/06/09 04:13:01;;;;;;;8.10;6.80;;;18.10;76.20;;;;;;2069765;28;20049;-88
2021/06/09 04:14:04;;;;;;;8.73;6.60;;;18.10;76.20;;;;;;2068458;28;20022;-88
2021/06/09 04:15:10;;;;;;;7.60;6.38;;;18.10;76.10;;;;;;2062550;28;20034;-87
2021/06/09 04:16:13;;;;;;;8.95;7.07;;;18.10;76.10;;;;;;2053610;28;20063;-87
2021/06/09 04:17:20;;;;;;;7.35;6.50;;;18.20;76.10;;;;;;2071089;28;20049;-88
2021/06/09 04:18:21;;;;;;;8.20;6.45;;;18.20;76.10;;;;;;2080654;28;20029;-88
2021/06/09 04:19:23;;;;;;;9.43;6.78;;;18.20;76.00;;;;;;2072643;28;20121;-88
2021/06/09 04:20:30;;;;;;;8.35;6.47;;;18.20;76.00;;;;;;2062587;28;20064;-87
2021/06/09 04:21:31;;;;;;;8.35;7.10;;;18.30;76.10;;;;;;2075755;28;20025;-86
2021/06/09 04:22:33;;;;;;;7.85;6.80;;;18.30;76.00;;;;;;2072910;28;20053;-84
2021/06/09 04:23:34;;;;;;;8.00;6.90;;;18.30;75.90;;;;;;2073258;28;20488;-86
2021/06/09 04:24:39;;;;;;;9.63;6.78;;;18.30;75.90;;;;;;2068954;28;21310;-86
2021/06/09 04:25:40;;;;;;;8.10;6.82;;;18.30;75.90;;;;;;2071871;28;20022;-85
2021/06/09 04:26:41;;;;;;;9.73;6.85;;;18.40;76.00;;;;;;2071886;28;20041;-85
2021/06/09 04:27:45;;;;;;;9.65;6.97;;;18.40;76.00;;;;;;2055393;28;20027;-86
2021/06/09 04:28:46;;;;;;;8.40;7.45;;;18.40;76.00;;;;;;2065731;28;20404;-85
2021/06/09 04:29:49;;;;;;;7.90;6.60;;;18.40;75.90;;;;;;2069039;28;20022;-86
2021/06/09 04:30:51;;;;;;;7.88;6.70;;;18.40;75.90;;;;;;2071249;28;20029;-85
2021/06/09 04:31:52;;;;;;;8.75;6.72;;;18.40;75.80;;;;;;2074343;28;20519;-86
2021/06/09 04:32:53;;;;;;;8.15;7.13;;;18.40;75.80;;;;;;2073267;28;20096;-86
2021/06/09 04:33:56;;;;;;;8.98;7.40;;;18.50;75.80;;;;;;2071809;28;20026;-85
2021/06/09 04:34:59;;;;;;;9.52;7.18;;;18.50;75.80;;;;;;2071415;28;20022;-86
2021/06/09 04:35:59;;;;;;;9.27;7.25;;;18.50;75.80;;;;;;2064198;28;20073;-86
2021/06/09 04:37:00;;;;;;;8.30;7.18;;;18.50;75.70;;;;;;2064147;28;20435;-86
2021/06/09 04:38:01;;;;;;;9.02;6.72;;;18.50;75.70;;;;;;2055164;28;20037;-86
2021/06/09 04:39:02;;;;;;;9.07;7.57;;;18.50;75.70;;;;;;2052904;28;20413;-85
2021/06/09 04:40:03;;;;;;;9.23;7.53;;;18.50;75.60;;;;;;2056425;28;20058;-86
2021/06/09 04:41:04;;;;;;;8.80;7.30;;;18.50;75.60;;;;;;2051429;28;20039;-85
2021/06/09 04:42:07;;;;;;;7.90;6.68;;;18.60;75.60;;;;;;2046918;28;20040;-86
2021/06/09 04:43:07;;;;;;;8.52;7.15;;;18.60;75.60;;;;;;2060374;28;20039;-86
2021/06/09 04:44:08;;;;;;;8.27;6.72;;;18.60;75.50;;;;;;2076062;28;20467;-86
2021/06/09 04:45:11;;;;;;;8.93;7.07;;;18.60;75.50;;;;;;2063325;28;20117;-86
2021/06/09 04:46:20;;;;;;;8.50;7.10;;;18.60;75.50;;;;;;2064106;28;20030;-85
2021/06/09 04:47:21;;;;;;;8.88;7.32;;;18.70;75.50;;;;;;2070564;28;20049;-86
2021/06/09 04:48:22;;;;;;;8.40;7.05;;;18.70;75.40;;;;;;2071295;28;20085;-85
2021/06/09 04:49:33;;;;;;;9.43;7.15;;;18.70;75.30;;;;;;2069712;28;20026;-86
2021/06/09 04:50:34;;;;;;;8.30;7.00;;;18.70;75.30;;;;;;2072883;28;20032;-85
2021/06/09 04:51:37;;;;;;;8.43;7.25;;;18.80;75.20;;;;;;2080937;28;20029;-85
2021/06/09 04:52:37;;;;;;;9.60;7.50;;;18.80;75.20;;;;;;2068126;28;20117;-86
2021/06/09 04:53:38;;;;;;;8.15;6.90;;;18.80;75.10;;;;;;2072024;28;20038;-86
2021/06/09 04:54:39;;;;;;;8.18;7.05;;;18.90;75.00;;;;;;2054691;28;20485;-86
2021/06/09 04:55:43;;;;;;;8.35;7.40;;;18.90;74.90;;;;;;2070868;28;20484;-86
2021/06/09 04:56:43;;;;;;;9.27;7.13;;;19.00;74.80;;;;;;2078943;28;20013;-85
2021/06/09 04:57:44;;;;;;;8.18;7.10;;;19.00;74.70;;;;;;2066134;28;20032;-86
2021/06/09 04:58:45;;;;;;;9.30;7.72;;;19.10;74.70;;;;;;2063041;28;20038;-86
2021/06/09 04:59:46;;;;;;;9.23;7.55;;;19.10;74.60;;;;;;2079730;28;20049;-86
2021/06/09 05:00:48;;;;;;;9.27;7.35;;;19.20;74.50;;;;;;2069298;28;20117;-86
2021/06/09 05:01:49;;;;;;;8.43;6.95;;;19.30;74.40;;;;;;2075383;28;20025;-86
2021/06/09 05:02:49;;;;;;;8.40;6.70;;;19.40;74.30;;;;;;2071352;28;20068;-86
2021/06/09 05:03:50;;;;;;;9.07;7.38;;;19.40;74.10;;;;;;2069193;28;20499;-86
2021/06/09 05:04:51;;;;;;;9.20;7.15;;;19.50;74.10;;;;;;2071368;28;20061;-86
2021/06/09 05:05:51;;;;;;;8.38;7.10;;;19.50;73.90;;;;;;2064033;28;20032;-86
2021/06/09 05:06:52;;;;;;;8.88;7.22;;;19.60;73.80;;;;;;2060278;28;20026;-86
2021/06/09 05:07:53;;;;;;;8.30;6.90;;;19.70;73.70;;;;;;2060744;28;20027;-86
2021/06/09 05:08:54;;;;;;;8.15;6.88;;;19.80;73.60;;;;;;2062669;28;20059;-85
2021/06/09 05:09:55;;;;;;;8.10;6.93;;;19.80;73.40;;;;;;2078902;28;20025;-86
2021/06/09 05:10:56;;;;;;;8.60;6.65;;;19.90;73.30;;;;;;2070610;28;20485;-86
2021/06/09 05:11:59;;;;;;;8.18;7.10;;;20.00;73.20;;;;;;2063931;28;20034;-86
2021/06/09 05:13:05;;;;;;;7.78;6.70;;;20.00;72.90;;;;;;2067512;28;20465;-86
2021/06/09 05:14:19;;;;;;;8.88;7.00;;;20.10;72.80;;;;;;2077263;28;20079;-86
2021/06/09 05:15:23;;;;;;;8.02;6.85;;;20.20;72.60;;;;;;2072778;28;20029;-85
2021/06/09 05:16:25;;;;;;;8.23;6.72;;;20.30;72.50;;;;;;2070707;28;20112;-86
2021/06/09 05:17:45;;;;;;;8.70;7.40;;;20.30;72.30;;;;;;2072934;28;20498;-85
2021/06/09 05:18:48;;;;;;;8.45;7.00;;;20.40;72.20;;;;;;2071858;28;20030;-86
2021/06/09 05:19:51;;;;;;;9.15;7.50;;;20.40;71.90;;;;;;2071019;28;20053;-86
2021/06/09 05:20:53;;;;;;;8.07;6.88;;;20.40;71.80;;;;;;2071023;28;20391;-86
2021/06/09 05:22:03;;;;;;;8.70;6.90;;;20.50;71.80;;;;;;2075973;28;20127;-85
2021/06/09 05:23:28;;;;;;;9.85;7.65;;;20.50;71.70;;;;;;2079578;28;20018;-86
2021/06/09 05:24:31;;;;;;;8.85;7.43;;;20.60;71.60;;;;;;2080130;28;20025;-86
2021/06/09 05:25:33;;;;;;;8.57;7.45;;;20.60;71.60;;;;;;2078611;28;20025;-85
2021/06/09 05:26:34;;;;;;;9.70;7.57;;;20.60;71.50;;;;;;2070980;28;20026;-85
2021/06/09 05:27:38;;;;;;;10.35;8.15;;;20.60;71.40;;;;;;2064827;28;20036;-86
2021/06/09 05:28:50;;;;;;;9.27;7.80;;;20.70;71.30;;;;;;2078085;28;20026;-85
2021/06/09 05:29:52;;;;;;;10.32;7.72;;;20.80;71.30;;;;;;2077536;28;20022;-84
2021/06/09 05:30:55;;;;;;;8.63;7.38;;;20.80;71.10;;;;;;2079194;28;20026;-84
2021/06/09 05:31:56;;;;;;;9.85;7.85;;;20.90;71.10;;;;;;2065325;28;20096;-85
2021/06/09 05:32:57;;;;;;;9.80;8.23;;;21.00;70.90;;;;;;2072638;28;20026;-85
2021/06/09 05:34:00;;;;;;;8.73;7.10;;;21.00;70.70;;;;;;2085863;28;20029;-85
2021/06/09 05:35:02;;;;;;;8.18;7.30;;;21.10;70.60;;;;;;2076298;28;20025;-85